Time;durP1;ratioP1;P1;durP2;ratioP2;P2;SDS_P1;SDS_P2;PMS_P1;PMS_P2;Temp;Humidity;BMP_temperature;BMP_pressure;BME280_temperature;BME280_humidity;BME280_pressure;Samples;Min_cycle;Max_cycle;Signal;HPM_P1;HPM_P2
2023/09/24 00:00:10;;;;;;;2.60;2.20;;;19.50;69.40;20.30;101499.00;;;;5014184;28;20179;-53
2023/09/24 00:02:38;;;;;;;3.20;2.20;;;19.50;69.40;20.30;101506.00;;;;5013219;28;20185;-53
2023/09/24 00:05:06;;;;;;;3.27;2.30;;;19.50;69.20;20.30;101509.00;;;;5013834;28;20175;-54
2023/09/24 00:07:32;;;;;;;3.43;2.20;;;19.50;69.40;20.30;101513.00;;;;5012426;28;20183;-54
2023/09/24 00:10:00;;;;;;;2.37;2.10;;;19.50;69.40;20.30;101510.00;;;;5011637;28;20286;-54
2023/09/24 00:12:28;;;;;;;2.77;2.10;;;19.50;69.40;20.30;101515.00;;;;5011601;28;20221;-54
2023/09/24 00:14:56;;;;;;;2.33;2.13;;;19.50;69.30;20.30;101511.00;;;;5010409;28;20644;-53
2023/09/24 00:17:21;;;;;;;2.37;2.10;;;19.50;69.40;20.30;101497.00;;;;5011575;28;20653;-54
2023/09/24 00:19:47;;;;;;;2.17;2.03;;;19.40;69.20;20.20;101512.00;;;;5011459;28;20192;-54
2023/09/24 00:22:13;;;;;;;2.30;2.10;;;19.50;69.20;20.20;101517.00;;;;5010203;28;20214;-54
2023/09/24 00:24:39;;;;;;;2.00;1.90;;;19.40;69.10;20.30;101515.00;;;;5011175;28;20178;-53
2023/09/24 00:27:05;;;;;;;2.40;2.20;;;19.40;68.80;20.20;101514.00;;;;5011310;28;20293;-54
2023/09/24 00:29:31;;;;;;;2.50;2.30;;;19.40;68.80;20.20;101521.00;;;;5011028;28;20197;-54
2023/09/24 00:31:57;;;;;;;3.73;2.40;;;19.40;68.80;20.20;101521.00;;;;5011170;28;20277;-54
2023/09/24 00:34:23;;;;;;;2.20;2.00;;;19.40;68.80;20.20;101529.00;;;;5010943;28;20238;-54
2023/09/24 00:36:50;;;;;;;2.77;2.07;;;19.40;68.80;20.20;101520.00;;;;5011178;28;20305;-53
2023/09/24 00:39:16;;;;;;;2.40;2.20;;;19.40;68.80;20.20;101514.00;;;;5009584;28;20176;-53
2023/09/24 00:41:46;;;;;;;2.30;2.10;;;19.40;68.70;20.20;101521.00;;;;5011057;28;20264;-54
2023/09/24 00:44:15;;;;;;;4.97;2.30;;;19.40;68.80;20.20;101515.00;;;;5011112;28;20650;-53
2023/09/24 00:46:44;;;;;;;2.63;2.13;;;19.40;68.80;20.20;101513.00;;;;5011034;28;20303;-54
2023/09/24 00:49:13;;;;;;;2.47;2.10;;;19.40;68.80;20.20;101515.00;;;;5009876;28;20221;-57
2023/09/24 00:51:39;;;;;;;2.40;2.20;;;19.30;68.60;20.20;101513.00;;;;5009384;28;20614;-54
2023/09/24 00:54:04;;;;;;;2.43;2.23;;;19.30;68.70;20.20;101527.00;;;;4993515;28;20191;-54
2023/09/24 00:56:30;;;;;;;2.40;2.03;;;19.30;68.70;20.10;101521.00;;;;5010953;28;20214;-53
2023/09/24 00:58:57;;;;;;;2.47;2.27;;;19.30;68.60;20.10;101526.00;;;;4993492;28;20191;-54
2023/09/24 01:01:24;;;;;;;2.30;2.10;;;19.30;68.60;20.10;101526.00;;;;4992558;28;20215;-54
2023/09/24 01:03:53;;;;;;;2.30;2.10;;;19.40;68.70;20.10;101534.00;;;;5009268;28;20651;-53
2023/09/24 01:06:19;;;;;;;2.40;2.20;;;19.30;68.60;20.10;101533.00;;;;5007195;28;20180;-54
2023/09/24 01:08:45;;;;;;;2.40;2.10;;;19.30;68.60;20.10;101527.00;;;;5010475;28;20384;-53
2023/09/24 01:11:11;;;;;;;2.40;2.20;;;19.30;69.40;20.10;101529.00;;;;5010082;28;20211;-54
2023/09/24 01:13:41;;;;;;;2.13;1.97;;;19.20;68.50;20.10;101531.00;;;;5011818;28;20270;-54
2023/09/24 01:16:07;;;;;;;2.47;2.20;;;19.20;68.50;20.10;101536.00;;;;5033109;28;20824;-54
2023/09/24 01:18:44;;;;;;;2.40;2.20;;;19.30;68.60;20.10;101530.00;;;;5011658;28;20212;-55
2023/09/24 01:21:15;;;;;;;2.30;2.10;;;19.30;68.60;20.00;101528.00;;;;5009630;28;20263;-54
2023/09/24 01:23:42;;;;;;;2.77;2.10;;;19.30;68.60;20.00;101531.00;;;;5011183;28;20225;-54
2023/09/24 01:26:10;;;;;;;2.53;2.10;;;19.20;68.50;20.00;101532.00;;;;5011169;28;20219;-55
2023/09/24 01:28:37;;;;;;;2.20;2.00;;;19.20;68.50;20.00;101538.00;;;;5020038;28;20198;-54
2023/09/24 01:31:03;;;;;;;2.70;2.20;;;19.20;68.50;20.00;101534.00;;;;5023327;28;20200;-53
2023/09/24 01:33:31;;;;;;;2.37;2.17;;;19.20;68.50;20.00;101532.00;;;;5009992;28;20559;-54
2023/09/24 01:35:58;;;;;;;2.23;2.03;;;19.20;68.40;20.00;101541.00;;;;5010212;28;20258;-54
2023/09/24 01:38:24;;;;;;;2.60;2.30;;;19.20;68.50;20.00;101545.00;;;;5009974;28;20268;-54
2023/09/24 01:40:51;;;;;;;2.40;2.20;;;19.20;68.50;20.00;101547.00;;;;5009801;28;20637;-54
2023/09/24 01:43:18;;;;;;;2.70;2.10;;;19.20;68.60;19.90;101548.00;;;;5004905;28;20236;-54
2023/09/24 01:45:44;;;;;;;2.90;2.17;;;19.10;68.50;20.00;101549.00;;;;5009724;28;20192;-53
2023/09/24 01:48:10;;;;;;;3.20;2.00;;;19.10;68.50;19.90;101559.00;;;;5009904;28;20823;-53
2023/09/24 01:50:36;;;;;;;2.20;2.00;;;19.10;68.60;19.90;101556.00;;;;5010095;28;20274;-53
2023/09/24 01:53:03;;;;;;;3.30;2.17;;;19.10;68.80;19.90;101565.00;;;;5010165;28;20180;-53
2023/09/24 01:55:29;;;;;;;2.70;2.10;;;19.10;68.80;19.90;101564.00;;;;5009930;28;20239;-54
2023/09/24 01:57:55;;;;;;;2.40;2.20;;;19.10;68.90;19.90;101566.00;;;;5009665;28;20255;-54
2023/09/24 02:00:23;;;;;;;2.40;2.20;;;19.10;68.80;19.90;101572.00;;;;5009935;28;20173;-53
2023/09/24 02:02:50;;;;;;;2.33;2.10;;;19.10;68.80;19.80;101561.00;;;;5009738;28;20224;-54
2023/09/24 02:05:16;;;;;;;2.20;2.00;;;19.10;68.70;19.80;101561.00;;;;5009623;28;20171;-54
2023/09/24 02:07:42;;;;;;;2.27;2.07;;;19.00;68.60;19.80;101552.00;;;;5009308;28;20662;-54
2023/09/24 02:10:08;;;;;;;2.13;2.00;;;19.00;68.70;19.80;101564.00;;;;5008412;28;20235;-53
2023/09/24 02:12:35;;;;;;;2.30;2.10;;;19.00;68.60;19.80;101558.00;;;;5009073;28;20181;-54
2023/09/24 02:15:09;;;;;;;2.40;2.20;;;19.00;68.60;19.80;101566.00;;;;5007858;28;20183;-54
2023/09/24 02:17:35;;;;;;;2.33;2.13;;;19.00;68.80;19.80;101570.00;;;;5008897;28;20214;-53
2023/09/24 02:20:10;;;;;;;2.20;2.00;;;19.00;68.70;19.80;101570.00;;;;5009387;28;20507;-53
2023/09/24 02:22:36;;;;;;;2.20;2.07;;;19.00;68.70;19.70;101569.00;;;;5008142;28;20221;-54
2023/09/24 02:25:03;;;;;;;2.17;2.00;;;19.00;68.60;19.70;101565.00;;;;5009260;28;20186;-53
2023/09/24 02:27:29;;;;;;;2.50;2.30;;;19.00;68.60;19.70;101574.00;;;;5008704;28;20179;-54
2023/09/24 02:29:55;;;;;;;2.00;1.80;;;18.90;68.40;19.70;101573.00;;;;5009096;28;20184;-53
2023/09/24 02:32:20;;;;;;;2.13;2.03;;;18.90;68.40;19.70;101572.00;;;;5009025;28;20197;-54
2023/09/24 02:34:47;;;;;;;2.37;2.10;;;18.90;68.40;19.70;101574.00;;;;5009085;28;20183;-53
2023/09/24 02:37:14;;;;;;;2.50;1.90;;;18.90;68.40;19.70;101568.00;;;;5008765;28;20294;-54
2023/09/24 02:39:40;;;;;;;2.83;2.10;;;18.90;68.40;19.70;101578.00;;;;5008782;28;20231;-53
2023/09/24 02:42:06;;;;;;;2.63;1.90;;;18.90;68.40;19.60;101583.00;;;;5008898;28;20283;-54
2023/09/24 02:44:31;;;;;;;3.27;2.20;;;18.90;68.40;19.60;101574.00;;;;5008713;28;20286;-53
2023/09/24 02:46:57;;;;;;;2.00;1.90;;;18.90;68.40;19.60;101575.00;;;;5009040;28;20299;-53
2023/09/24 02:49:23;;;;;;;2.40;1.90;;;18.80;68.30;19.60;101579.00;;;;5008850;28;20190;-52
2023/09/24 02:51:49;;;;;;;2.37;2.17;;;18.80;68.30;19.60;101578.00;;;;5009010;28;20559;-53
2023/09/24 02:54:16;;;;;;;2.13;1.93;;;18.80;68.20;19.60;101579.00;;;;5009282;28;20183;-53
2023/09/24 02:56:42;;;;;;;3.10;2.20;;;18.80;68.20;19.60;101587.00;;;;5008789;28;20298;-53
2023/09/24 02:59:11;;;;;;;3.00;2.10;;;18.80;68.20;19.60;101592.00;;;;5008876;28;20302;-56
2023/09/24 03:01:37;;;;;;;3.00;2.10;;;18.80;68.20;19.60;101582.00;;;;5009348;28;21455;-54
2023/09/24 03:04:04;;;;;;;2.53;2.20;;;18.80;68.20;19.60;101580.00;;;;4992503;28;20190;-53
2023/09/24 03:06:31;;;;;;;2.30;2.10;;;18.80;68.10;19.50;101583.00;;;;5010102;28;20249;-53
2023/09/24 03:08:57;;;;;;;2.43;2.00;;;18.80;68.10;19.50;101587.00;;;;5010093;28;20180;-54
2023/09/24 03:11:23;;;;;;;2.20;2.07;;;18.70;68.10;19.50;101587.00;;;;5020441;28;20192;-54
2023/09/24 03:13:49;;;;;;;2.20;2.00;;;18.70;68.20;19.50;101590.00;;;;5019773;28;20244;-53
2023/09/24 03:16:15;;;;;;;2.20;2.00;;;18.70;68.20;19.50;101592.00;;;;5010103;28;20245;-53
2023/09/24 03:18:40;;;;;;;2.20;2.00;;;18.80;68.20;19.50;101614.00;;;;5009428;28;20195;-53
2023/09/24 03:21:11;;;;;;;3.00;2.13;;;18.70;68.20;19.40;101601.00;;;;5010227;28;20203;-53
2023/09/24 03:23:37;;;;;;;2.47;2.10;;;18.70;68.10;19.40;101589.00;;;;5009299;28;20199;-54
2023/09/24 03:26:03;;;;;;;2.30;2.10;;;18.70;68.00;19.40;101597.00;;;;5029038;28;20187;-57
2023/09/24 03:28:29;;;;;;;2.37;2.17;;;18.70;68.00;19.40;101601.00;;;;5012196;28;20183;-53
2023/09/24 03:30:55;;;;;;;3.47;2.23;;;18.70;68.40;19.40;101602.00;;;;5008187;28;20613;-55
2023/09/24 03:33:20;;;;;;;3.63;1.90;;;18.70;68.40;19.40;101605.00;;;;5010408;28;20754;-53
2023/09/24 03:35:47;;;;;;;2.20;2.00;;;18.70;68.30;19.40;101609.00;;;;5013540;28;20234;-53
2023/09/24 03:38:13;;;;;;;2.10;1.90;;;18.70;68.20;19.40;101599.00;;;;5012764;28;20183;-53
2023/09/24 03:40:38;;;;;;;3.20;2.00;;;18.70;68.00;19.40;101614.00;;;;5013437;28;20207;-53
2023/09/24 03:43:04;;;;;;;3.90;2.10;;;18.70;68.00;19.40;101617.00;;;;5015739;28;20685;-53
2023/09/24 03:45:30;;;;;;;2.90;2.00;;;18.70;68.00;19.40;101619.00;;;;5015632;28;20179;-54
2023/09/24 03:47:56;;;;;;;2.80;2.10;;;18.70;68.00;19.40;101625.00;;;;5014766;28;20192;-54
2023/09/24 03:50:22;;;;;;;2.17;1.90;;;18.70;68.00;19.40;101633.00;;;;5013327;28;20192;-54
2023/09/24 03:52:51;;;;;;;4.83;2.33;;;18.60;67.90;19.40;101627.00;;;;5013447;28;20180;-54
2023/09/24 03:55:18;;;;;;;2.67;1.90;;;18.60;67.90;19.40;101631.00;;;;5009966;28;20190;-53
2023/09/24 03:57:44;;;;;;;2.30;2.07;;;18.60;67.90;19.40;101634.00;;;;5011867;28;20200;-54
2023/09/24 04:00:15;;;;;;;2.30;2.10;;;18.60;68.70;19.40;101636.00;;;;5013082;28;20183;-54
2023/09/24 04:02:47;;;;;;;2.13;1.93;;;18.60;67.90;19.30;101640.00;;;;5012429;28;20184;-53
2023/09/24 04:05:21;;;;;;;2.27;2.00;;;18.60;67.90;19.30;101650.00;;;;5013012;28;20266;-53
2023/09/24 04:07:49;;;;;;;3.30;1.90;;;18.60;67.90;19.30;101646.00;;;;5005546;28;20242;-54
2023/09/24 04:10:15;;;;;;;2.03;1.90;;;18.60;67.90;19.30;101648.00;;;;5013275;28;20190;-53
2023/09/24 04:12:50;;;;;;;2.30;2.10;;;18.60;67.90;19.30;101647.00;;;;5011931;28;20230;-53
2023/09/24 04:15:18;;;;;;;3.90;2.07;;;18.60;67.90;19.30;101644.00;;;;5013193;28;20195;-53
2023/09/24 04:17:46;;;;;;;7.47;2.27;;;18.50;67.80;19.30;101654.00;;;;5012710;28;20214;-53
2023/09/24 04:20:15;;;;;;;3.87;1.90;;;18.60;68.00;19.30;101653.00;;;;5012728;28;20194;-55
2023/09/24 04:22:47;;;;;;;4.37;2.10;;;18.50;68.00;19.30;101648.00;;;;5012410;28;20190;-52
2023/09/24 04:25:22;;;;;;;2.57;1.93;;;18.50;68.10;19.20;101649.00;;;;5012534;28;20187;-53
2023/09/24 04:27:48;;;;;;;5.30;2.20;;;18.50;68.10;19.20;101646.00;;;;5012643;28;20913;-53
2023/09/24 04:30:17;;;;;;;5.87;2.50;;;18.50;68.20;19.20;101664.00;;;;5012494;28;20188;-53
2023/09/24 04:32:52;;;;;;;8.07;2.30;;;18.50;68.20;19.20;101661.00;;;;5012373;28;20729;-52
2023/09/24 04:35:21;;;;;;;10.83;2.73;;;18.50;68.10;19.20;101657.00;;;;5012511;28;20650;-53
2023/09/24 04:37:51;;;;;;;8.30;2.40;;;18.50;68.10;19.20;101664.00;;;;5012045;28;20217;-53
2023/09/24 04:40:16;;;;;;;8.77;2.70;;;18.50;68.20;19.20;101659.00;;;;5011659;28;20199;-53
2023/09/24 04:42:43;;;;;;;11.93;2.97;;;18.40;68.40;19.10;101668.00;;;;5012100;28;20597;-52
2023/09/24 04:45:12;;;;;;;6.13;2.60;;;18.40;68.50;19.10;101663.00;;;;5011764;28;20199;-53
2023/09/24 04:47:39;;;;;;;8.03;2.60;;;18.40;68.40;19.10;101671.00;;;;5012102;28;20242;-53
2023/09/24 04:50:07;;;;;;;10.10;2.70;;;18.40;68.40;19.10;101676.00;;;;5012668;28;20563;-53
2023/09/24 04:52:33;;;;;;;9.57;2.60;;;18.40;68.20;19.10;101676.00;;;;5011912;28;20175;-53
2023/09/24 04:55:00;;;;;;;9.10;2.80;;;18.40;68.20;19.10;101681.00;;;;5012375;28;20184;-53
2023/09/24 04:57:25;;;;;;;8.23;2.40;;;18.40;68.20;19.10;101680.00;;;;5004959;28;20562;-54
2023/09/24 04:59:53;;;;;;;5.50;2.57;;;18.40;68.20;19.10;101679.00;;;;5011391;28;20214;-54
2023/09/24 05:02:21;;;;;;;12.93;2.73;;;18.40;68.20;19.10;101661.00;;;;5010943;28;20240;-52
2023/09/24 05:04:48;;;;;;;6.70;2.47;;;18.40;68.20;19.10;101684.00;;;;5010724;28;20192;-53
2023/09/24 05:07:14;;;;;;;7.17;2.70;;;18.40;68.20;19.10;101699.00;;;;5025278;28;20203;-53
2023/09/24 05:09:39;;;;;;;5.53;2.50;;;18.40;68.10;19.10;101688.00;;;;5020525;28;20654;-53
2023/09/24 05:12:05;;;;;;;4.47;2.20;;;18.40;68.10;19.10;101698.00;;;;5010597;28;20227;-52
2023/09/24 05:14:31;;;;;;;7.57;2.43;;;18.40;69.00;19.10;101703.00;;;;5012071;28;20205;-52
2023/09/24 05:16:58;;;;;;;3.03;2.17;;;18.30;68.10;19.00;101689.00;;;;5011471;28;20234;-54
2023/09/24 05:19:24;;;;;;;4.77;2.50;;;18.30;68.10;19.00;101694.00;;;;5011118;28;20274;-53
2023/09/24 05:21:50;;;;;;;3.83;2.03;;;18.30;68.10;19.00;101703.00;;;;5012206;28;20283;-52
2023/09/24 05:24:15;;;;;;;3.10;2.10;;;18.30;68.10;19.00;101707.00;;;;5013638;28;20278;-52
2023/09/24 05:26:41;;;;;;;4.33;1.90;;;18.30;68.20;19.00;101711.00;;;;5015159;28;20180;-53
2023/09/24 05:29:07;;;;;;;2.73;2.00;;;18.30;68.20;19.00;101700.00;;;;5011196;28;20180;-53
2023/09/24 05:31:33;;;;;;;4.07;2.00;;;18.30;68.20;19.00;101707.00;;;;5001779;28;20214;-53
2023/09/24 05:33:58;;;;;;;3.00;2.03;;;18.30;68.20;19.00;101706.00;;;;5010854;28;20192;-53
2023/09/24 05:36:24;;;;;;;3.30;2.00;;;18.30;68.20;19.00;101714.00;;;;5010025;28;20219;-53
2023/09/24 05:38:50;;;;;;;2.40;1.90;;;18.20;68.20;19.00;101718.00;;;;5009299;28;20180;-53
2023/09/24 05:41:16;;;;;;;3.77;2.00;;;18.30;68.40;19.00;101726.00;;;;5009754;28;20195;-53
2023/09/24 05:43:44;;;;;;;2.77;2.10;;;18.20;68.20;19.00;101730.00;;;;5010612;28;20253;-53
2023/09/24 05:46:14;;;;;;;2.60;2.03;;;18.20;68.20;19.00;101724.00;;;;5009333;28;20253;-52
2023/09/24 05:48:40;;;;;;;4.03;2.00;;;18.30;68.30;19.00;101724.00;;;;5010537;28;20176;-53
2023/09/24 05:51:07;;;;;;;4.23;2.10;;;18.20;68.10;18.90;101708.00;;;;5010904;28;20222;-54
2023/09/24 05:53:33;;;;;;;3.53;2.03;;;18.20;68.20;18.90;101728.00;;;;5009065;28;20214;-53
2023/09/24 05:55:59;;;;;;;2.93;1.90;;;18.20;68.20;18.90;101732.00;;;;5009863;28;20689;-53
2023/09/24 05:58:25;;;;;;;2.70;1.93;;;18.20;68.20;18.90;101734.00;;;;5009891;28;20230;-52
2023/09/24 06:00:51;;;;;;;2.30;2.00;;;18.20;68.30;18.90;101733.00;;;;5009854;28;20622;-53
2023/09/24 06:03:17;;;;;;;3.43;2.00;;;18.20;68.30;18.90;101740.00;;;;5009774;28;20176;-52
2023/09/24 06:05:43;;;;;;;2.40;2.20;;;18.20;68.20;18.90;101740.00;;;;5006371;28;20210;-52
2023/09/24 06:08:08;;;;;;;3.00;1.90;;;18.20;68.20;18.90;101743.00;;;;5007358;28;20250;-52
2023/09/24 06:10:35;;;;;;;3.53;2.10;;;18.20;68.20;18.90;101750.00;;;;5008533;28;20259;-52
2023/09/24 06:13:01;;;;;;;2.90;1.90;;;18.20;68.20;18.90;101748.00;;;;5009388;28;20188;-53
2023/09/24 06:15:27;;;;;;;4.47;2.00;;;18.20;68.30;18.90;101754.00;;;;5009575;28;20179;-53
2023/09/24 06:17:53;;;;;;;1.93;1.80;;;18.10;68.10;18.90;101761.00;;;;5008900;28;20195;-52
2023/09/24 06:20:18;;;;;;;2.13;1.80;;;18.20;68.20;18.90;101762.00;;;;5009283;28;20658;-53
2023/09/24 06:22:52;;;;;;;2.10;1.70;;;18.10;68.10;18.90;101760.00;;;;5009522;28;20186;-53
2023/09/24 06:25:18;;;;;;;3.40;2.00;;;18.10;68.10;18.90;101739.00;;;;5008428;28;20172;-54
2023/09/24 06:27:44;;;;;;;2.73;1.73;;;18.20;69.00;18.90;101772.00;;;;5009309;28;20188;-54
2023/09/24 06:30:10;;;;;;;2.30;1.60;;;18.10;68.10;18.90;101776.00;;;;5009644;28;20180;-53
2023/09/24 06:32:36;;;;;;;2.00;1.80;;;18.10;68.10;18.90;101779.00;;;;5010065;28;20237;-52
2023/09/24 06:35:03;;;;;;;1.80;1.70;;;18.10;68.00;18.80;101781.00;;;;5009966;28;20666;-53
2023/09/24 06:37:30;;;;;;;1.60;1.50;;;18.10;68.10;18.80;101777.00;;;;5009644;28;20215;-53
2023/09/24 06:39:55;;;;;;;1.70;1.60;;;18.10;68.10;18.80;101784.00;;;;5010280;28;20194;-53
2023/09/24 06:42:22;;;;;;;1.93;1.83;;;18.10;68.10;18.80;101785.00;;;;5008126;28;20199;-53
2023/09/24 06:44:49;;;;;;;2.03;1.70;;;18.10;68.10;18.80;101773.00;;;;5010462;28;20184;-53
2023/09/24 06:47:15;;;;;;;3.30;2.00;;;18.10;68.20;18.80;101783.00;;;;5009400;28;20194;-53
2023/09/24 06:49:41;;;;;;;1.87;1.77;;;18.10;68.10;18.80;101782.00;;;;5009685;28;20183;-53
2023/09/24 06:52:06;;;;;;;2.10;1.90;;;18.10;68.20;18.80;101785.00;;;;5009053;28;20207;-54
2023/09/24 06:54:32;;;;;;;2.60;1.97;;;18.10;68.20;18.80;101794.00;;;;5009342;28;20183;-54
2023/09/24 06:56:58;;;;;;;2.53;2.00;;;18.10;68.30;18.80;101795.00;;;;5009033;28;20670;-53
2023/09/24 06:59:24;;;;;;;2.90;2.00;;;18.10;68.40;18.80;101801.00;;;;5008783;28;20187;-53
2023/09/24 07:01:51;;;;;;;3.63;2.20;;;18.00;68.20;18.70;101803.00;;;;5009103;28;20199;-60
2023/09/24 07:04:17;;;;;;;4.37;2.23;;;18.00;68.40;18.70;101796.00;;;;5027295;28;20164;-53
2023/09/24 07:06:43;;;;;;;2.40;1.83;;;18.00;68.40;18.70;101804.00;;;;5012671;28;20194;-52
2023/09/24 07:09:09;;;;;;;2.67;2.00;;;18.00;68.40;18.70;101803.00;;;;5007675;28;20195;-54
2023/09/24 07:11:37;;;;;;;1.97;1.77;;;18.00;68.50;18.70;101802.00;;;;5008579;28;20286;-53
2023/09/24 07:14:04;;;;;;;2.07;1.87;;;18.00;68.60;18.70;101809.00;;;;5008881;28;20266;-53
2023/09/24 07:16:30;;;;;;;1.93;1.73;;;18.00;68.60;18.70;101803.00;;;;5009194;28;20198;-53
2023/09/24 07:18:57;;;;;;;2.30;2.03;;;18.00;69.50;18.70;101809.00;;;;5025562;28;20191;-54
2023/09/24 07:21:25;;;;;;;2.47;2.10;;;18.00;68.70;18.70;101816.00;;;;5007855;28;20341;-53
2023/09/24 07:23:52;;;;;;;3.20;1.77;;;18.00;68.80;18.70;101816.00;;;;5009437;28;20179;-52
2023/09/24 07:26:18;;;;;;;3.40;2.10;;;18.00;68.80;18.70;101809.00;;;;5009020;28;20187;-53
2023/09/24 07:28:44;;;;;;;2.80;2.00;;;18.00;68.80;18.70;101815.00;;;;5010144;28;20180;-54
2023/09/24 07:31:19;;;;;;;1.90;1.80;;;17.90;68.80;18.60;101822.00;;;;5010293;28;20241;-53
2023/09/24 07:33:45;;;;;;;2.27;2.00;;;18.00;69.00;18.60;101825.00;;;;5009041;28;20269;-53
2023/09/24 07:36:12;;;;;;;3.00;2.00;;;17.90;68.80;18.60;101818.00;;;;5009228;28;20207;-53
2023/09/24 07:38:39;;;;;;;3.50;1.90;;;17.90;68.90;18.60;101821.00;;;;5009199;28;20183;-53
2023/09/24 07:41:07;;;;;;;2.00;1.77;;;17.90;69.00;18.60;101821.00;;;;5009443;28;20230;-53
2023/09/24 07:43:36;;;;;;;3.17;2.00;;;17.90;69.00;18.60;101819.00;;;;5009066;28;20198;-53
2023/09/24 07:46:03;;;;;;;2.10;1.67;;;17.90;69.10;18.60;101821.00;;;;5008709;28;20183;-53
2023/09/24 07:48:29;;;;;;;3.37;2.03;;;17.90;69.20;18.60;101823.00;;;;5005893;28;20279;-53
2023/09/24 07:50:55;;;;;;;2.70;1.93;;;17.90;69.40;18.60;101817.00;;;;5000838;28;20294;-54
2023/09/24 07:53:22;;;;;;;4.33;2.10;;;17.90;69.50;18.60;101828.00;;;;5008265;28;20192;-53
2023/09/24 07:56:07;;;;;;;4.47;2.00;;;17.80;69.70;18.60;101823.00;;;;5008306;28;20203;-55
2023/09/24 07:58:33;;;;;;;4.93;1.90;;;17.90;69.80;18.50;101823.00;;;;5008783;28;20184;-53
2023/09/24 08:01:05;;;;;;;3.83;2.03;;;17.90;69.80;18.50;101822.00;;;;5008726;28;20214;-54
2023/09/24 08:03:31;;;;;;;2.00;1.83;;;17.80;70.10;18.50;101831.00;;;;5008801;28;20262;-54
2023/09/24 08:05:58;;;;;;;3.03;1.80;;;17.90;70.10;18.60;101831.00;;;;5008610;28;20194;-54
2023/09/24 08:08:25;;;;;;;3.90;2.00;;;17.90;70.30;18.50;101824.00;;;;5008448;28;20218;-54
2023/09/24 08:10:50;;;;;;;2.27;1.90;;;17.90;70.20;18.60;101843.00;;;;5008754;28;20698;-54
2023/09/24 08:13:19;;;;;;;2.37;1.80;;;17.90;70.40;18.60;101832.00;;;;5009212;28;20187;-54
2023/09/24 08:15:47;;;;;;;1.83;1.70;;;17.90;70.40;18.60;101829.00;;;;5000821;28;20246;-53
2023/09/24 08:18:13;;;;;;;3.40;1.83;;;17.90;70.40;18.60;101740.00;;;;5008557;28;20253;-53
2023/09/24 08:20:42;;;;;;;3.33;1.97;;;17.90;70.50;18.60;101822.00;;;;5004642;28;20196;-52
2023/09/24 08:23:08;;;;;;;2.67;1.90;;;17.90;70.50;18.60;101823.00;;;;5012233;28;20222;-53
2023/09/24 08:25:34;;;;;;;2.33;2.00;;;17.80;70.70;18.60;101838.00;;;;5012013;28;20184;-53
2023/09/24 08:28:00;;;;;;;2.03;1.80;;;17.90;70.60;18.60;101831.00;;;;5009081;28;20183;-53
2023/09/24 08:30:30;;;;;;;2.10;1.90;;;17.90;70.70;18.60;101825.00;;;;5011955;28;20195;-53
2023/09/24 08:32:56;;;;;;;2.83;1.93;;;17.90;70.70;18.60;101822.00;;;;5009614;28;20184;-53
2023/09/24 08:35:22;;;;;;;3.13;1.77;;;17.90;70.90;18.60;101827.00;;;;5011906;28;20552;-53
2023/09/24 08:37:49;;;;;;;2.20;1.90;;;17.90;71.10;18.60;101823.00;;;;5007339;28;20176;-53
2023/09/24 08:40:16;;;;;;;3.83;1.83;;;17.80;70.90;18.60;101822.00;;;;5011090;28;20183;-53
2023/09/24 08:42:46;;;;;;;2.90;1.70;;;17.80;71.00;18.60;101823.00;;;;5012167;28;20192;-54
2023/09/24 08:45:18;;;;;;;1.93;1.73;;;17.90;71.20;18.60;101821.00;;;;5010994;28;20190;-54
2023/09/24 08:47:43;;;;;;;2.77;1.93;;;17.90;71.40;18.60;101830.00;;;;5003812;28;20563;-54
2023/09/24 08:50:09;;;;;;;4.30;1.90;;;17.90;71.70;18.60;101829.00;;;;5010785;28;20187;-55
2023/09/24 08:52:39;;;;;;;4.13;1.90;;;17.80;73.30;18.60;101818.00;;;;5012343;28;20203;-54
2023/09/24 08:55:06;;;;;;;4.57;2.07;;;17.90;72.80;18.60;101818.00;;;;5011568;28;20290;-53
2023/09/24 08:57:33;;;;;;;7.33;2.20;;;17.90;73.50;18.60;101813.00;;;;5010350;28;20223;-53
2023/09/24 09:00:00;;;;;;;4.97;2.00;;;17.90;73.10;18.60;101800.00;;;;5012412;28;20188;-54
2023/09/24 09:02:25;;;;;;;4.73;2.17;;;17.90;73.20;18.60;101816.00;;;;5026970;28;20203;-54
2023/09/24 09:04:51;;;;;;;4.87;2.30;;;17.90;73.30;18.60;101816.00;;;;5015064;28;20188;-53
2023/09/24 09:07:17;;;;;;;4.83;2.50;;;17.90;73.90;18.60;101812.00;;;;5011666;28;20225;-54
2023/09/24 09:09:58;;;;;;;4.43;2.40;;;17.90;74.30;18.60;101808.00;;;;5011975;28;20211;-65
2023/09/24 09:12:25;;;;;;;3.63;2.40;;;17.90;74.70;18.60;101807.00;;;;5011998;28;20203;-55
2023/09/24 09:14:51;;;;;;;7.30;2.13;;;17.90;74.20;18.60;101807.00;;;;5015351;28;20430;-53
2023/09/24 09:17:17;;;;;;;7.33;2.67;;;17.90;74.20;18.30;101813.00;;;;5024521;28;20246;-53
2023/09/24 09:19:52;;;;;;;3.90;2.33;;;17.90;75.10;18.70;101816.00;;;;5012023;28;20210;-53
2023/09/24 09:22:26;;;;;;;5.47;2.40;;;17.90;74.80;18.60;101810.00;;;;5010012;28;20195;-53
2023/09/24 09:25:06;;;;;;;5.10;2.27;;;17.90;74.70;18.70;101810.00;;;;5011905;28;20182;-54
2023/09/24 09:27:43;;;;;;;4.13;2.20;;;17.90;74.60;18.60;101805.00;;;;5009389;28;20814;-54
2023/09/24 09:30:18;;;;;;;7.67;2.10;;;17.90;74.80;18.70;101802.00;;;;5011596;28;20191;-53
2023/09/24 09:32:45;;;;;;;5.13;2.30;;;17.90;74.90;18.70;101803.00;;;;5011466;28;20769;-54
2023/09/24 09:35:12;;;;;;;2.57;2.07;;;17.90;75.10;18.70;101805.00;;;;5011492;28;20195;-54
2023/09/24 09:37:38;;;;;;;2.97;2.07;;;17.90;75.40;18.70;101797.00;;;;5010957;28;20317;-53
2023/09/24 09:40:06;;;;;;;3.70;2.00;;;18.00;75.20;18.70;101795.00;;;;5011682;28;20245;-53
2023/09/24 09:42:35;;;;;;;2.80;1.90;;;17.90;75.70;18.70;101800.00;;;;5011451;28;20219;-53
2023/09/24 09:45:10;;;;;;;4.30;2.20;;;18.00;75.60;18.70;101797.00;;;;5011212;28;20179;-54
2023/09/24 09:48:01;;;;;;;2.87;2.00;;;18.00;76.00;18.70;101784.00;;;;5010979;28;20229;-53
2023/09/24 09:50:26;;;;;;;3.97;1.90;;;18.00;76.00;18.70;101775.00;;;;5011152;28;20286;-53
2023/09/24 09:52:54;;;;;;;4.37;2.00;;;18.00;76.00;18.70;101787.00;;;;5009880;28;20262;-54
2023/09/24 09:55:20;;;;;;;2.43;1.80;;;18.00;75.90;18.80;101780.00;;;;5010575;28;20190;-53
2023/09/24 09:57:46;;;;;;;6.30;2.13;;;18.00;76.00;18.80;101698.00;;;;4993371;28;20262;-53
2023/09/24 10:00:14;;;;;;;2.23;2.00;;;18.00;76.40;18.80;101774.00;;;;5010913;28;20226;-52
2023/09/24 10:02:41;;;;;;;3.10;1.90;;;18.00;76.30;18.80;101776.00;;;;5010523;28;20274;-54
2023/09/24 10:05:07;;;;;;;4.23;1.90;;;18.10;76.60;18.80;101778.00;;;;4993398;28;20186;-53
2023/09/24 10:07:40;;;;;;;3.13;1.80;;;18.10;76.80;18.80;101772.00;;;;5009376;28;20187;-54
2023/09/24 10:10:34;;;;;;;4.93;1.90;;;18.10;76.70;18.80;101776.00;;;;5010669;28;20179;-53
2023/09/24 10:13:01;;;;;;;3.67;2.10;;;18.10;77.10;18.80;101771.00;;;;5004736;28;20225;-53
2023/09/24 10:15:28;;;;;;;4.37;2.10;;;18.10;77.10;18.80;101763.00;;;;5008353;28;20283;-54
2023/09/24 10:18:09;;;;;;;5.20;1.97;;;18.10;77.20;18.90;101760.00;;;;5010368;28;20283;-54
2023/09/24 10:20:50;;;;;;;3.70;1.93;;;18.10;77.00;18.90;101777.00;;;;5010451;28;20282;-53
2023/09/24 10:23:31;;;;;;;2.33;1.80;;;18.10;77.40;18.90;101768.00;;;;5010484;28;20293;-54
2023/09/24 10:26:01;;;;;;;4.40;1.80;;;18.20;77.20;18.90;101766.00;;;;5010519;28;20189;-53
2023/09/24 10:28:51;;;;;;;2.77;1.90;;;18.20;77.40;18.90;101768.00;;;;5010281;28;20262;-53
2023/09/24 10:31:21;;;;;;;3.47;1.90;;;18.20;77.60;18.90;101768.00;;;;5010584;28;20195;-53
2023/09/24 10:33:52;;;;;;;3.13;1.90;;;18.30;77.90;18.90;101757.00;;;;5010417;28;20187;-53
2023/09/24 10:36:27;;;;;;;4.03;1.83;;;18.30;77.90;18.90;101757.00;;;;5010305;28;20223;-53
2023/09/24 10:39:10;;;;;;;2.50;1.90;;;18.30;77.90;19.00;101756.00;;;;5009314;28;20175;-54
2023/09/24 10:41:36;;;;;;;2.87;1.90;;;18.30;77.90;19.00;101750.00;;;;5010056;28;20282;-53
2023/09/24 10:44:35;;;;;;;2.37;1.83;;;18.30;78.10;19.00;101755.00;;;;5009567;28;20181;-53
2023/09/24 10:47:26;;;;;;;2.63;1.70;;;18.30;78.10;19.00;101754.00;;;;4987664;28;20670;-54
2023/09/24 10:50:17;;;;;;;1.67;1.57;;;18.40;78.30;19.00;101750.00;;;;5009374;28;20180;-53